PWSweather.com
Personal Weather Stations
Station Observations
KPAGREEN17
Chestnut Hill Farm, Greensburg, PA 15601

Chestnut Hill FarmGreensburg, PA 15601

Lat: 40.32, Lon: -79.55

Elevation: 1148

Station Type: OR 968

Latest ConditionsUpdated 6:30:05 AM EDT Sunday, Mar 29, 2015
Currently Today's Max Today's Min Today's Average
Temperature 10.8°F-11.8°C 16.8°F-8.4°C 10.8°F-11.8°C 13.2°F-10.4°C
Dew Point -3.0°F-19.4°C -0.4°F-18.0°C -3.0°F-19.4°C -1.4°F-18.6°C
Winds Calm Calm 1.2 mph NW1.9 kmh NW - 0.0 mph 0.0 kmh
Wind Gusts -- 2.3 mph3.7 kmh - -
Humidity 53% 53% 46% 51%
Pressure 30.34 in1027.4 mb 30.34 in1027.4 mb 30.31 in1026.4 mb -
Hour Temp Dew Point Humidity Winds Wind Gusts Pressure Precip Precip Rate Daily Precip Total
06:30 AM 10.8°F-11.8°C -3.0°F-19.4°C 53% Calm Calm -- 30.34 in1027.4 mb - 0.00 in0.0 mm 0.00 in0.0 mm
06:15 AM 10.9°F-11.7°C -2.9°F-19.4°C 53% Calm Calm -- 30.34 in1027.4 mb - 0.00 in0.0 mm 0.00 in0.0 mm
06:00 AM 11.3°F-11.5°C -2.5°F-19.2°C 53% Calm Calm -- 30.34 in1027.4 mb - 0.00 in0.0 mm 0.00 in0.0 mm
05:45 AM 11.3°F-11.5°C -2.5°F-19.2°C 53% Calm Calm -- 30.34 in1027.4 mb - 0.00 in0.0 mm 0.00 in0.0 mm
05:30 AM 11.5°F-11.4°C -2.4°F-19.1°C 53% Calm Calm -- 30.34 in1027.4 mb - 0.00 in0.0 mm 0.00 in0.0 mm
05:15 AM 11.3°F-11.5°C -2.5°F-19.2°C 53% Calm Calm -- 30.34 in1027.4 mb - 0.00 in0.0 mm 0.00 in0.0 mm
05:00 AM 11.7°F-11.3°C -2.2°F-19.0°C 53% Calm Calm -- 30.34 in1027.4 mb - 0.00 in0.0 mm 0.00 in0.0 mm
04:45 AM 11.8°F-11.2°C -2.1°F-18.9°C 53% Calm Calm -- 30.34 in1027.4 mb - 0.00 in0.0 mm 0.00 in0.0 mm
04:30 AM 11.8°F-11.2°C -2.0°F-18.9°C 53% Calm Calm -- 30.34 in1027.4 mb - 0.00 in0.0 mm 0.00 in0.0 mm
04:15 AM 12.0°F-11.1°C -1.9°F-18.8°C 53% Calm Calm -- 30.34 in1027.4 mb - 0.00 in0.0 mm 0.00 in0.0 mm
04:00 AM 12.2°F-11.0°C -1.7°F-18.7°C 53% Calm Calm -- 30.34 in1027.4 mb - 0.00 in0.0 mm 0.00 in0.0 mm
03:45 AM 12.5°F-10.8°C -1.4°F-18.6°C 53% Calm Calm -- 30.34 in1027.4 mb - 0.00 in0.0 mm 0.00 in0.0 mm
03:30 AM 12.6°F-10.8°C -1.4°F-18.6°C 53% Calm Calm -- 30.34 in1027.4 mb - 0.00 in0.0 mm 0.00 in0.0 mm
03:15 AM 13.1°F-10.5°C -0.9°F-18.3°C 53% Calm Calm -- 30.34 in1027.4 mb - 0.00 in0.0 mm 0.00 in0.0 mm
03:00 AM 13.3°F-10.4°C -0.7°F-18.2°C 53% 1.2 mph NW1.9 kmh NW 2.3 mph3.7 kmh 30.34 in1027.4 mb - 0.00 in0.0 mm 0.00 in0.0 mm
02:45 AM 13.5°F-10.3°C -0.5°F-18.1°C 53% Calm Calm -- 30.34 in1027.4 mb - 0.00 in0.0 mm 0.00 in0.0 mm
02:30 AM 13.8°F-10.1°C -0.6°F-18.1°C 52% Calm Calm -- 30.34 in1027.4 mb - 0.00 in0.0 mm 0.00 in0.0 mm
02:15 AM 13.8°F-10.1°C -1.0°F-18.3°C 51% Calm Calm -- 30.34 in1027.4 mb - 0.00 in0.0 mm 0.00 in0.0 mm
02:00 AM 14.2°F-9.9°C -0.7°F-18.2°C 51% Calm Calm -- 30.34 in1027.4 mb - 0.00 in0.0 mm 0.00 in0.0 mm
01:45 AM 14.2°F-9.9°C -1.1°F-18.4°C 50% Calm Calm -- 30.34 in1027.4 mb - 0.00 in0.0 mm 0.00 in0.0 mm
01:30 AM 14.5°F-9.7°C -0.8°F-18.2°C 50% Calm Calm -- 30.34 in1027.4 mb - 0.00 in0.0 mm 0.00 in0.0 mm
01:15 AM 15.1°F-9.4°C -0.7°F-18.2°C 49% Calm Calm -- 30.31 in1026.4 mb - 0.00 in0.0 mm 0.00 in0.0 mm
01:00 AM 15.4°F-9.2°C -0.8°F-18.2°C 48% Calm Calm -- 30.31 in1026.4 mb - 0.00 in0.0 mm 0.00 in0.0 mm
12:45 AM 15.6°F-9.1°C -0.6°F-18.1°C 48% Calm Calm -- 30.31 in1026.4 mb - 0.00 in0.0 mm 0.00 in0.0 mm
12:30 AM 15.9°F-8.9°C -0.8°F-18.2°C 47% Calm Calm -- 30.31 in1026.4 mb - 0.00 in0.0 mm 0.00 in0.0 mm
12:15 AM 16.3°F-8.7°C -0.4°F-18.0°C 47% Calm Calm -- 30.31 in1026.4 mb - 0.00 in0.0 mm 0.00 in0.0 mm
12:00 AM 16.8°F-8.4°C -0.5°F-18.1°C 46% Calm Calm -- 30.31 in1026.4 mb - 0.00 in0.0 mm 0.00 in0.0 mm